Upstream stations:
SHEF ID: TIFM7 Elk River near Tiff City, Mo
STATION TYPE:
Regulating: Stage = 15.00, Flow = 21304
PRECIP STAGE STAGE(2) RIV-FLOW BAT-LOAD
in ft ft cfs volt
Ccp-Rev Ccp-Rev Ccp-Rev Ccp-Rev Ccp-Rev
(US/Central)
04/06 00:00 0.00 5.81 5.79 2014 11.55
04/06 01:00 0.00 5.80 5.78 2003 11.54
04/06 02:00 0.00 5.79 5.77 1992 11.58
04/06 03:00 0.00 5.79 5.77 1992 11.57
04/06 04:00 0.00 5.78 5.76 1981 11.54
04/06 05:00 0.00 5.78 5.75 1981 11.47
04/06 06:00 0.00 5.76 5.75 1958 11.45
04/06 07:00 0.00 5.75 5.74 1947 11.44
04/06 08:00 0.00 5.75 5.72 1947 11.45
04/06 09:00 0.00 5.74 5.72 1936 12.30
04/06 10:00 0.00 5.73 5.71 1925 12.65
04/06 11:00 0.00 5.71 5.71 1903 12.70
04/06 12:00 0.00 5.72 5.69 1914 12.70
04/06 13:00 0.00 5.70 5.68 1892 12.65
04/06 14:00 0.00 5.69 5.65 1881 12.63
04/06 15:00 0.00 5.68 5.65 1870 12.60
04/06 16:00 0.00 5.66 5.63 1848 12.27
04/06 17:00 0.00 5.66 5.63 1848 12.24
04/06 18:00 0.00 5.65 5.61 1838 12.24
04/06 19:00 0.00 5.63 5.61 1816 12.24
04/06 20:00 0.00 5.62 5.60 1806 12.04
04/06 21:00 0.00 5.60 5.59 1784 11.73
04/06 22:00 0.00 5.60 5.57 1784 11.60
04/06 23:00 0.00 5.58 5.56 1763 11.60